Terminal Aerodrome Forecast
Issued by NWS

Home | Current Version | Previous Version | Text Only | Print | Product List | Glossary Off
Versions: 1 2 3 4 5 6 7 8 9 10 11 12 13 14 15 16 17 18

774
FTUS43 KAPX 190659 AAA
TAFTVC
TAF AMD
KTVC 190659Z 1907/2006 33013G23KT P6SM VCSH OVC025
      TEMPO 1907/1909 4SM -SHRASN
     FM190900 32013G23KT P6SM VCSH OVC025
      TEMPO 1909/1912 2SM -SHSN
     FM191200 32015G25KT P6SM VCSH OVC025
     FM191900 28011G22KT P6SM BKN040
     FM200000 27008KT P6SM BKN050=

USA.gov is the U.S. government's official web portal to all federal, state and local government web resources and services.